Time;durP1;ratioP1;P1;durP2;ratioP2;P2;SDS_P1;SDS_P2;PMS_P1;PMS_P2;Temp;Humidity;BMP_temperature;BMP_pressure;BME280_temperature;BME280_humidity;BME280_pressure;Samples;Min_cycle;Max_cycle;Signal;HPM_P1;HPM_P2
2022/05/18 00:00:54;;;;;;;3.25;2.50;;;23.70;55.20;;;;;;5039658;28;20026;-76
2022/05/18 00:03:24;;;;;;;3.30;2.35;;;23.70;55.30;;;;;;5027498;28;20025;-77
2022/05/18 00:05:50;;;;;;;3.85;2.47;;;23.60;55.20;;;;;;5022424;28;20053;-75
2022/05/18 00:08:16;;;;;;;4.20;2.38;;;23.60;55.30;;;;;;5042149;28;20442;-76
2022/05/18 00:10:45;;;;;;;3.50;2.40;;;23.60;55.30;;;;;;5009091;28;20137;-75
2022/05/18 00:13:11;;;;;;;3.03;2.25;;;23.50;55.40;;;;;;5043542;28;20029;-76
2022/05/18 00:15:38;;;;;;;3.13;2.38;;;23.50;55.30;;;;;;5021057;28;20060;-76
2022/05/18 00:18:05;;;;;;;3.08;2.20;;;23.50;55.40;;;;;;5039023;28;20030;-76
2022/05/18 00:20:30;;;;;;;3.47;2.22;;;23.50;55.40;;;;;;5011407;28;20120;-76
2022/05/18 00:23:02;;;;;;;3.25;2.42;;;23.40;55.40;;;;;;5017005;28;20093;-77
2022/05/18 00:25:34;;;;;;;4.95;2.50;;;23.40;55.50;;;;;;5028006;28;20514;-76
2022/05/18 00:28:01;;;;;;;3.83;2.47;;;23.40;55.50;;;;;;5023457;28;20121;-76
2022/05/18 00:30:28;;;;;;;3.22;2.38;;;23.30;55.40;;;;;;5014454;28;20029;-77
2022/05/18 00:32:57;;;;;;;3.03;2.45;;;23.30;55.50;;;;;;5054809;28;20634;-76
2022/05/18 00:35:25;;;;;;;3.17;2.28;;;23.30;55.50;;;;;;5027410;28;20030;-76
2022/05/18 00:37:51;;;;;;;2.58;2.13;;;23.30;55.60;;;;;;4995142;28;20042;-76
2022/05/18 00:40:18;;;;;;;3.80;2.42;;;23.20;55.60;;;;;;4987929;28;20056;-76
2022/05/18 00:42:44;;;;;;;3.97;2.75;;;23.20;55.70;;;;;;5011015;28;20117;-77
2022/05/18 00:45:10;;;;;;;4.60;2.80;;;23.20;55.70;;;;;;5022577;28;20759;-76
2022/05/18 00:47:36;;;;;;;4.40;2.88;;;23.10;55.70;;;;;;5020416;28;20033;-75
2022/05/18 00:50:09;;;;;;;3.83;2.47;;;23.10;55.70;;;;;;5012186;28;20041;-76
2022/05/18 00:52:40;;;;;;;3.92;2.60;;;23.10;55.80;;;;;;5019830;28;20041;-75
2022/05/18 00:55:08;;;;;;;3.28;2.28;;;23.00;55.70;;;;;;5003959;28;20033;-76
2022/05/18 00:57:52;;;;;;;3.30;2.58;;;23.00;55.80;;;;;;5011642;28;20546;-75
2022/05/18 01:00:19;;;;;;;3.40;2.45;;;23.00;55.90;;;;;;5004060;28;20032;-76
2022/05/18 01:02:52;;;;;;;4.00;3.00;;;23.00;55.90;;;;;;5017938;28;20108;-75
2022/05/18 01:05:25;;;;;;;3.72;2.58;;;22.90;55.90;;;;;;5003175;28;20043;-75
2022/05/18 01:07:55;;;;;;;3.78;2.58;;;22.90;55.90;;;;;;5025490;28;20118;-77
2022/05/18 01:10:22;;;;;;;3.78;2.58;;;22.90;56.00;;;;;;5026341;28;20636;-75
2022/05/18 01:12:48;;;;;;;3.70;2.75;;;22.90;56.00;;;;;;5019189;28;20030;-75
2022/05/18 01:15:19;;;;;;;4.07;2.55;;;22.90;56.00;;;;;;5008908;28;20041;-77
2022/05/18 01:17:47;;;;;;;4.15;2.55;;;22.80;56.10;;;;;;5006410;28;20061;-76
2022/05/18 01:20:19;;;;;;;3.30;2.55;;;22.70;56.00;;;;;;5023313;28;20037;-76
2022/05/18 01:22:59;;;;;;;3.58;2.63;;;22.70;56.10;;;;;;5024768;28;20026;-76
2022/05/18 01:25:37;;;;;;;4.10;3.00;;;22.70;56.20;;;;;;5020980;28;20510;-76
2022/05/18 01:28:05;;;;;;;3.85;2.85;;;22.70;56.20;;;;;;5023159;28;20084;-76
2022/05/18 01:30:32;;;;;;;3.25;2.47;;;22.60;56.10;;;;;;5003223;28;20014;-76
2022/05/18 01:33:00;;;;;;;3.30;2.40;;;22.60;56.20;;;;;;5020401;28;20465;-75
2022/05/18 01:35:32;;;;;;;3.10;2.50;;;22.50;56.10;;;;;;5017152;28;20032;-77
2022/05/18 01:37:59;;;;;;;4.88;2.65;;;22.50;56.20;;;;;;5015046;28;20147;-76
2022/05/18 01:41:02;;;;;;;3.67;2.67;;;22.50;56.20;;;;;;5022630;28;20034;-75
2022/05/18 01:43:40;;;;;;;3.90;2.80;;;22.50;56.50;;;;;;5024955;28;20076;-76
2022/05/18 01:46:10;;;;;;;3.58;2.65;;;22.50;56.30;;;;;;5019800;28;20084;-76
2022/05/18 01:48:40;;;;;;;3.90;2.75;;;22.40;56.30;;;;;;5030601;28;20025;-76
2022/05/18 01:51:07;;;;;;;4.13;3.08;;;22.40;56.40;;;;;;5024428;28;20124;-76
2022/05/18 01:53:34;;;;;;;4.38;2.80;;;22.40;56.40;;;;;;4986151;28;20593;-75
2022/05/18 01:56:00;;;;;;;3.90;2.65;;;22.30;56.40;;;;;;5020464;28;20104;-76
2022/05/18 01:58:26;;;;;;;4.57;2.95;;;22.30;56.40;;;;;;5022253;28;20053;-75
2022/05/18 02:00:52;;;;;;;4.00;2.92;;;22.20;56.40;;;;;;5020245;28;20042;-76
2022/05/18 02:03:20;;;;;;;4.13;2.88;;;22.20;56.40;;;;;;5012780;28;20025;-76
2022/05/18 02:05:46;;;;;;;4.65;2.95;;;22.20;56.50;;;;;;5023754;28;20021;-76
2022/05/18 02:08:13;;;;;;;3.75;2.95;;;22.20;56.90;;;;;;5021645;28;20060;-76
2022/05/18 02:10:38;;;;;;;4.40;2.72;;;22.10;56.50;;;;;;5039161;28;20478;-77
2022/05/18 02:13:04;;;;;;;3.97;3.08;;;22.10;56.50;;;;;;5044720;28;20034;-77
2022/05/18 02:15:30;;;;;;;3.45;2.60;;;22.10;56.50;;;;;;5030337;28;20030;-75
2022/05/18 02:17:57;;;;;;;4.72;3.17;;;22.10;56.60;;;;;;5022445;28;20033;-76
2022/05/18 02:20:23;;;;;;;4.03;3.10;;;22.10;56.60;;;;;;5060263;28;20132;-76
2022/05/18 02:22:51;;;;;;;5.05;3.05;;;22.00;56.60;;;;;;5030048;28;20128;-75
2022/05/18 02:25:18;;;;;;;4.30;3.20;;;22.00;56.70;;;;;;5012271;28;20041;-76
2022/05/18 02:27:44;;;;;;;4.10;2.97;;;22.00;56.70;;;;;;5028098;28;20508;-76
2022/05/18 02:30:10;;;;;;;3.92;3.05;;;22.00;56.70;;;;;;5031046;28;20037;-77
2022/05/18 02:32:36;;;;;;;4.25;2.88;;;21.90;56.80;;;;;;5029054;28;20022;-76
2022/05/18 02:35:04;;;;;;;5.22;3.60;;;21.90;56.80;;;;;;5013698;28;20056;-76
2022/05/18 02:37:30;;;;;;;3.83;2.80;;;21.90;56.80;;;;;;5028631;28;20486;-76
2022/05/18 02:39:56;;;;;;;4.13;3.00;;;21.90;56.80;;;;;;5008525;28;20042;-77
2022/05/18 02:42:21;;;;;;;4.82;3.40;;;21.80;56.80;;;;;;5007179;28;20034;-76
2022/05/18 02:44:48;;;;;;;4.38;3.15;;;21.80;56.90;;;;;;5027908;28;20453;-77
2022/05/18 02:47:13;;;;;;;4.47;3.20;;;21.80;56.90;;;;;;5024176;28;20790;-78
2022/05/18 02:49:39;;;;;;;4.07;3.17;;;21.70;56.90;;;;;;5026378;28;20067;-77
2022/05/18 02:52:05;;;;;;;3.97;3.00;;;21.70;56.90;;;;;;5004683;28;20482;-76
2022/05/18 02:57:15;;;;;;;3.80;2.80;;;21.70;57.00;;;;;;5044035;28;20067;-77
2022/05/18 02:59:43;;;;;;;3.90;2.90;;;21.60;56.90;;;;;;5059254;28;20038;-77
2022/05/18 03:02:08;;;;;;;3.60;2.80;;;21.60;57.00;;;;;;5021905;28;20061;-77
2022/05/18 03:04:34;;;;;;;4.13;2.85;;;21.60;57.10;;;;;;5021216;28;20455;-78
2022/05/18 03:07:00;;;;;;;3.90;2.95;;;21.50;57.10;;;;;;5041805;28;20091;-79
2022/05/18 03:09:26;;;;;;;4.25;3.05;;;21.50;57.10;;;;;;5024505;28;20037;-76
2022/05/18 03:11:52;;;;;;;3.75;3.10;;;21.50;57.10;;;;;;5026779;28;20037;-77
2022/05/18 03:14:17;;;;;;;3.88;2.90;;;21.40;57.10;;;;;;5012423;28;20541;-77
2022/05/18 03:16:44;;;;;;;3.58;2.80;;;21.40;57.20;;;;;;5009832;28;20550;-76
2022/05/18 03:19:13;;;;;;;3.80;2.90;;;21.40;57.20;;;;;;5024877;28;20037;-77
2022/05/18 03:24:23;;;;;;;4.07;2.90;;;21.40;57.30;;;;;;5043206;28;20030;-77
2022/05/18 03:26:49;;;;;;;3.50;2.80;;;21.30;57.20;;;;;;5022658;28;20029;-77
2022/05/18 03:29:17;;;;;;;4.20;3.15;;;21.30;57.30;;;;;;4982027;28;20030;-77
2022/05/18 03:31:43;;;;;;;4.15;2.75;;;21.30;57.40;;;;;;5014618;28;20051;-77
2022/05/18 03:34:10;;;;;;;4.20;2.70;;;21.30;57.40;;;;;;5017079;28;20177;-76
2022/05/18 03:36:36;;;;;;;3.72;2.65;;;21.30;57.50;;;;;;5004215;28;20068;-76
2022/05/18 03:39:04;;;;;;;3.33;2.60;;;21.20;57.40;;;;;;5029361;28;20025;-78
2022/05/18 03:41:30;;;;;;;3.85;2.67;;;21.20;57.50;;;;;;5021538;28;20033;-77
2022/05/18 03:43:55;;;;;;;3.67;2.55;;;21.20;58.10;;;;;;5011707;28;20061;-76
2022/05/18 03:46:21;;;;;;;4.15;2.60;;;21.20;57.50;;;;;;5029654;28;20033;-76
2022/05/18 03:48:47;;;;;;;3.53;2.72;;;21.10;57.50;;;;;;5013916;28;20048;-78
2022/05/18 03:51:16;;;;;;;3.45;2.72;;;21.10;57.60;;;;;;5002464;28;20087;-77
2022/05/18 03:53:42;;;;;;;3.45;2.58;;;21.10;57.70;;;;;;5014473;28;20029;-77
2022/05/18 03:56:08;;;;;;;3.88;2.83;;;21.10;57.70;;;;;;5003637;28;20037;-77
2022/05/18 03:58:35;;;;;;;3.92;2.90;;;21.00;57.70;;;;;;5021439;28;20026;-76
2022/05/18 04:01:08;;;;;;;3.85;2.70;;;21.00;57.80;;;;;;5021174;28;20026;-77
2022/05/18 04:03:35;;;;;;;3.70;2.75;;;21.00;57.80;;;;;;5021042;28;20478;-77
2022/05/18 04:06:01;;;;;;;4.18;2.80;;;21.00;57.90;;;;;;5020990;28;20037;-77
2022/05/18 04:08:27;;;;;;;3.72;2.78;;;21.00;57.90;;;;;;5022900;28;20037;-77
2022/05/18 04:10:55;;;;;;;3.20;2.70;;;21.00;57.90;;;;;;5018497;28;20044;-77
2022/05/18 04:13:24;;;;;;;3.90;2.88;;;20.90;58.20;;;;;;5027919;28;20033;-78
2022/05/18 04:15:51;;;;;;;4.18;2.67;;;20.90;58.00;;;;;;5024529;28;20514;-77
2022/05/18 04:18:18;;;;;;;3.70;2.75;;;20.90;58.00;;;;;;5058387;28;20077;-78
2022/05/18 04:20:44;;;;;;;3.30;2.70;;;20.90;58.10;;;;;;4995655;28;20076;-77
2022/05/18 04:23:11;;;;;;;3.65;2.65;;;20.90;58.20;;;;;;5024967;28;20432;-77
2022/05/18 04:25:37;;;;;;;3.33;2.50;;;20.80;58.10;;;;;;5019196;28;20060;-76
2022/05/18 04:28:04;;;;;;;4.40;3.03;;;20.80;58.20;;;;;;5052918;28;20053;-76
2022/05/18 04:30:30;;;;;;;3.53;2.70;;;20.80;58.30;;;;;;5012452;28;20057;-77
2022/05/18 04:32:58;;;;;;;4.10;2.95;;;20.80;58.30;;;;;;5017790;28;20403;-77
2022/05/18 04:35:25;;;;;;;3.58;2.88;;;20.80;58.40;;;;;;5040601;28;20037;-79
2022/05/18 04:37:52;;;;;;;4.28;2.90;;;20.80;58.40;;;;;;5019950;28;20033;-76
2022/05/18 04:40:18;;;;;;;2.95;2.47;;;20.80;58.40;;;;;;5022836;28;20433;-77
2022/05/18 04:42:44;;;;;;;3.53;2.55;;;20.70;58.50;;;;;;5026559;28;20068;-77
2022/05/18 04:45:13;;;;;;;3.10;2.40;;;20.70;58.50;;;;;;5017081;28;20085;-77
2022/05/18 04:47:39;;;;;;;3.80;2.88;;;20.70;58.50;;;;;;5017458;28;20060;-77
2022/05/18 04:50:06;;;;;;;4.20;3.20;;;20.70;58.60;;;;;;5026835;28;20040;-77
2022/05/18 04:52:31;;;;;;;3.40;2.53;;;20.70;58.60;;;;;;5026349;28;20026;-77
2022/05/18 04:54:57;;;;;;;4.13;2.83;;;20.60;58.50;;;;;;5058935;28;20477;-77
2022/05/18 04:57:23;;;;;;;2.90;2.40;;;20.60;58.50;;;;;;5025994;28;20041;-76
2022/05/18 04:59:49;;;;;;;3.42;2.60;;;20.60;58.50;;;;;;5008595;28;20147;-77
2022/05/18 05:02:16;;;;;;;3.75;2.53;;;20.60;58.50;;;;;;5025041;28;20120;-77
2022/05/18 05:04:42;;;;;;;3.05;2.60;;;20.60;58.50;;;;;;5001661;28;20175;-76
2022/05/18 05:07:08;;;;;;;3.83;2.75;;;20.60;59.20;;;;;;5019471;28;20130;-77
2022/05/18 05:09:34;;;;;;;3.40;2.50;;;20.60;58.60;;;;;;5008268;28;20478;-77
2022/05/18 05:12:00;;;;;;;3.83;2.78;;;20.60;58.60;;;;;;5009336;28;20048;-78
2022/05/18 05:14:27;;;;;;;3.65;2.70;;;20.60;58.60;;;;;;5004852;28;20025;-77
2022/05/18 05:16:53;;;;;;;3.50;2.45;;;20.60;58.60;;;;;;5054246;28;20061;-77
2022/05/18 05:19:18;;;;;;;3.83;2.70;;;20.50;58.60;;;;;;5030408;28;20039;-78
2022/05/18 05:21:44;;;;;;;3.15;2.55;;;20.50;58.60;;;;;;5031589;28;20025;-77
2022/05/18 05:24:12;;;;;;;3.40;2.53;;;20.50;58.60;;;;;;5027599;28;20091;-78
2022/05/18 05:26:38;;;;;;;3.00;2.42;;;20.50;58.70;;;;;;5014744;28;20021;-77
2022/05/18 05:29:05;;;;;;;3.60;2.67;;;20.50;58.70;;;;;;5024755;28;20037;-77
2022/05/18 05:31:31;;;;;;;4.28;2.85;;;20.50;58.70;;;;;;5024650;28;20033;-78
2022/05/18 05:33:57;;;;;;;3.08;2.20;;;20.50;58.80;;;;;;5022816;28;20044;-77
2022/05/18 05:36:23;;;;;;;3.33;2.53;;;20.50;58.80;;;;;;5030209;28;20025;-77
2022/05/18 05:38:49;;;;;;;3.25;2.50;;;20.50;58.80;;;;;;5026441;28;20040;-77
2022/05/18 05:41:16;;;;;;;3.25;2.50;;;20.50;58.80;;;;;;5018467;28;20029;-77
2022/05/18 05:43:42;;;;;;;2.75;2.38;;;20.50;58.80;;;;;;5014290;28;20048;-77
2022/05/18 05:46:10;;;;;;;3.17;2.25;;;20.50;58.80;;;;;;5006920;28;20076;-76
2022/05/18 05:48:36;;;;;;;2.75;2.17;;;20.50;58.90;;;;;;5009473;28;20425;-77
2022/05/18 05:51:03;;;;;;;2.42;2.13;;;20.50;58.80;;;;;;5021404;28;20037;-77
2022/05/18 05:53:32;;;;;;;3.58;2.63;;;20.50;58.80;;;;;;5009702;28;20030;-78
2022/05/18 05:55:58;;;;;;;5.45;2.30;;;20.50;58.90;;;;;;5023729;28;20111;-77
2022/05/18 05:58:26;;;;;;;2.83;2.20;;;20.50;58.90;;;;;;5021917;28;20036;-77
2022/05/18 06:00:52;;;;;;;2.30;2.10;;;20.50;59.00;;;;;;5009203;28;20026;-78
2022/05/18 06:03:19;;;;;;;3.13;2.30;;;20.60;59.00;;;;;;5022823;28;20076;-77
2022/05/18 06:05:45;;;;;;;3.13;2.30;;;20.60;59.00;;;;;;5054376;28;20024;-77
2022/05/18 06:08:11;;;;;;;3.35;2.33;;;20.60;59.10;;;;;;5060969;28;20125;-79
2022/05/18 06:10:38;;;;;;;3.63;2.47;;;20.60;59.10;;;;;;5007534;28;20025;-78
2022/05/18 06:13:09;;;;;;;2.80;2.40;;;20.60;59.10;;;;;;5023631;28;20033;-78
2022/05/18 06:15:35;;;;;;;3.10;2.13;;;20.60;59.30;;;;;;5060790;28;20021;-78
2022/05/18 06:18:01;;;;;;;3.53;2.50;;;20.60;59.20;;;;;;5029557;28;20044;-79
2022/05/18 06:20:27;;;;;;;2.50;2.30;;;20.60;59.30;;;;;;5015676;28;20037;-78
2022/05/18 06:22:53;;;;;;;2.97;2.38;;;20.70;59.40;;;;;;5023801;28;20036;-77
2022/05/18 06:25:19;;;;;;;3.70;2.55;;;20.70;59.50;;;;;;5006183;28;20037;-77
2022/05/18 06:27:45;;;;;;;2.55;2.30;;;20.70;59.50;;;;;;5022711;28;20417;-78
2022/05/18 06:30:13;;;;;;;2.70;2.25;;;20.70;59.60;;;;;;5039057;28;20913;-78
2022/05/18 06:32:39;;;;;;;3.53;2.65;;;20.70;59.70;;;;;;5029915;28;20129;-77
2022/05/18 06:35:06;;;;;;;3.42;2.38;;;20.80;59.70;;;;;;5023878;28;20112;-78
2022/05/18 06:37:32;;;;;;;3.00;2.15;;;20.80;59.80;;;;;;5042353;28;20038;-78
2022/05/18 06:39:58;;;;;;;2.88;2.15;;;20.80;59.80;;;;;;5028650;28;20034;-77
2022/05/18 06:42:23;;;;;;;2.92;2.35;;;20.80;59.90;;;;;;5021528;28;20037;-78
2022/05/18 06:44:50;;;;;;;3.70;2.70;;;20.90;60.00;;;;;;5012622;28;20025;-77
2022/05/18 06:47:17;;;;;;;3.65;2.60;;;20.90;60.00;;;;;;5012938;28;20034;-78
2022/05/18 06:49:43;;;;;;;3.65;2.22;;;21.00;60.10;;;;;;5026491;28;20040;-77
2022/05/18 06:52:11;;;;;;;4.43;2.70;;;21.00;60.10;;;;;;5028719;28;20021;-77
2022/05/18 06:54:38;;;;;;;2.75;2.35;;;21.00;60.20;;;;;;5012718;28;20030;-78
2022/05/18 06:57:04;;;;;;;3.00;2.30;;;21.10;60.30;;;;;;5026738;28;20096;-78
2022/05/18 06:59:31;;;;;;;3.15;2.60;;;21.00;60.20;;;;;;5021101;28;20083;-77
2022/05/18 07:01:57;;;;;;;3.05;2.38;;;21.10;60.40;;;;;;5009522;28;20191;-78
2022/05/18 07:04:24;;;;;;;3.25;2.60;;;21.10;60.40;;;;;;5022405;28;20038;-79
2022/05/18 07:06:50;;;;;;;4.07;2.58;;;21.20;60.50;;;;;;5021085;28;20552;-78
2022/05/18 07:09:19;;;;;;;3.55;2.50;;;21.30;60.60;;;;;;5024198;28;20033;-78
2022/05/18 07:11:47;;;;;;;3.50;2.72;;;21.20;60.70;;;;;;5012136;28;20074;-78
2022/05/18 07:14:14;;;;;;;2.65;2.33;;;21.30;60.80;;;;;;5022065;28;20041;-78
2022/05/18 07:16:43;;;;;;;3.47;2.60;;;21.30;60.80;;;;;;5029941;28;20033;-78
2022/05/18 07:19:09;;;;;;;3.63;2.90;;;21.40;60.90;;;;;;5024485;28;20045;-78
2022/05/18 07:21:35;;;;;;;5.32;2.92;;;21.40;60.90;;;;;;5019682;28;20175;-78
2022/05/18 07:24:01;;;;;;;4.93;2.78;;;21.50;61.00;;;;;;5005335;28;20037;-77
2022/05/18 07:26:29;;;;;;;4.22;3.10;;;21.50;61.00;;;;;;5027261;28;20061;-77
2022/05/18 07:28:55;;;;;;;4.57;3.33;;;21.60;61.00;;;;;;5022230;28;20044;-77
2022/05/18 07:31:21;;;;;;;4.13;3.10;;;21.60;61.00;;;;;;5022089;28;20041;-78
2022/05/18 07:33:48;;;;;;;3.95;3.00;;;21.70;61.10;;;;;;5018763;28;20029;-77
2022/05/18 07:36:15;;;;;;;5.28;3.38;;;21.70;61.10;;;;;;5025960;28;20083;-78
2022/05/18 07:38:41;;;;;;;4.15;3.15;;;21.80;61.20;;;;;;5028264;28;20040;-77
2022/05/18 07:41:10;;;;;;;7.35;3.60;;;21.80;61.10;;;;;;4996501;28;20383;-77
2022/05/18 07:43:36;;;;;;;4.47;2.97;;;21.80;61.20;;;;;;5003773;28;20534;-77
2022/05/18 07:46:04;;;;;;;4.60;3.22;;;21.90;61.90;;;;;;5025745;28;20033;-78
2022/05/18 07:48:30;;;;;;;4.45;3.58;;;21.90;61.20;;;;;;5018143;28;20053;-78
2022/05/18 07:50:57;;;;;;;4.13;3.10;;;22.00;61.20;;;;;;5011753;28;20025;-77
2022/05/18 07:53:23;;;;;;;5.28;3.78;;;22.00;61.20;;;;;;5030120;28;20022;-79
2022/05/18 07:55:49;;;;;;;4.47;3.28;;;22.00;61.10;;;;;;5028596;28;20048;-78
2022/05/18 07:58:17;;;;;;;4.18;3.00;;;22.10;61.20;;;;;;5021305;28;20030;-77
2022/05/18 08:00:43;;;;;;;4.40;3.08;;;22.10;61.10;;;;;;5028579;28;20116;-78
2022/05/18 08:03:09;;;;;;;4.28;3.17;;;22.20;61.20;;;;;;5027917;28;20113;-77
2022/05/18 08:05:36;;;;;;;4.57;3.20;;;22.20;61.10;;;;;;4996395;28;20469;-78
2022/05/18 08:08:10;;;;;;;3.95;2.95;;;22.30;61.20;;;;;;5027565;28;20041;-78
2022/05/18 08:16:05;;;;;;;5.28;3.58;;;22.50;60.90;;;;;;5028677;28;20034;-78
2022/05/18 08:18:30;;;;;;;4.65;3.33;;;22.50;60.90;;;;;;5010326;28;20385;-79
2022/05/18 08:20:56;;;;;;;5.93;4.22;;;22.50;60.90;;;;;;5016874;28;20041;-78
2022/05/18 08:23:22;;;;;;;4.75;3.70;;;22.60;61.00;;;;;;5020163;28;20030;-78
2022/05/18 08:25:48;;;;;;;6.13;3.60;;;22.60;61.00;;;;;;5011966;28;20534;-78
2022/05/18 08:28:15;;;;;;;4.93;3.72;;;22.70;60.90;;;;;;5009203;28;20056;-78
2022/05/18 08:30:43;;;;;;;4.72;3.47;;;22.80;60.90;;;;;;5018758;28;20055;-77
2022/05/18 08:33:09;;;;;;;5.63;4.03;;;22.80;60.90;;;;;;5024170;28;20025;-78
2022/05/18 08:35:35;;;;;;;5.65;4.07;;;22.90;60.90;;;;;;5025567;28;20449;-78
2022/05/18 08:38:01;;;;;;;4.95;3.80;;;23.00;60.90;;;;;;5027710;28;20112;-78
2022/05/18 08:40:37;;;;;;;5.85;4.22;;;23.00;60.80;;;;;;5021474;28;20036;-78
2022/05/18 08:43:08;;;;;;;4.97;3.88;;;23.10;60.90;;;;;;5021037;28;20033;-78
2022/05/18 08:45:48;;;;;;;4.90;3.80;;;23.20;60.90;;;;;;5038788;28;20028;-78
2022/05/18 08:48:31;;;;;;;5.00;3.70;;;23.30;60.90;;;;;;5020084;28;20033;-78
2022/05/18 08:51:04;;;;;;;5.85;4.07;;;23.40;61.00;;;;;;5018721;28;20088;-79
2022/05/18 08:54:05;;;;;;;4.85;3.78;;;23.50;60.90;;;;;;5010077;28;20061;-79
2022/05/18 08:56:39;;;;;;;4.43;3.38;;;23.50;60.90;;;;;;5028902;28;20041;-78
2022/05/18 08:59:14;;;;;;;5.20;3.75;;;23.60;60.90;;;;;;5025223;28;20086;-77
2022/05/18 09:01:46;;;;;;;5.65;3.88;;;23.70;60.80;;;;;;5028422;28;20033;-78
2022/05/18 09:04:42;;;;;;;5.78;3.78;;;23.80;60.70;;;;;;5024597;28;20030;-78
2022/05/18 09:07:13;;;;;;;4.93;3.67;;;23.90;60.80;;;;;;5028338;28;20025;-78
2022/05/18 09:12:38;;;;;;;4.45;3.33;;;24.20;60.80;;;;;;5026450;28;20021;-78
2022/05/18 09:15:07;;;;;;;7.13;3.47;;;24.30;60.70;;;;;;5017183;28;20022;-80
2022/05/18 09:17:40;;;;;;;5.20;3.60;;;24.30;60.70;;;;;;5048653;28;20120;-78
2022/05/18 09:20:13;;;;;;;5.28;3.92;;;24.40;60.70;;;;;;5031408;28;20033;-80
2022/05/18 09:23:02;;;;;;;4.57;3.65;;;24.50;60.70;;;;;;5016944;28;20022;-78
2022/05/18 09:25:46;;;;;;;5.30;3.65;;;24.70;60.80;;;;;;5030049;28;20035;-78
2022/05/18 09:28:37;;;;;;;4.32;3.20;;;24.70;60.60;;;;;;5030453;28;20033;-78
2022/05/18 09:31:18;;;;;;;4.10;3.38;;;24.80;60.70;;;;;;5044680;28;20029;-78
2022/05/18 09:34:02;;;;;;;4.18;3.47;;;25.00;60.80;;;;;;5030015;28;20097;-78
2022/05/18 09:37:06;;;;;;;4.57;3.33;;;25.10;60.70;;;;;;5028294;28;20033;-79
2022/05/18 09:39:40;;;;;;;4.35;3.67;;;25.20;60.70;;;;;;5026719;28;20033;-78
2022/05/18 09:42:11;;;;;;;3.75;3.15;;;25.30;60.40;;;;;;5024666;28;20481;-78
2022/05/18 09:45:05;;;;;;;4.47;3.50;;;25.40;60.40;;;;;;5009106;28;20493;-78
2022/05/18 09:47:39;;;;;;;3.78;2.80;;;25.40;60.40;;;;;;5026103;28;20056;-78
2022/05/18 09:50:08;;;;;;;4.35;3.30;;;25.60;60.30;;;;;;5035372;28;20049;-77
2022/05/18 09:52:37;;;;;;;5.53;3.40;;;25.70;60.30;;;;;;5023100;28;20083;-77
2022/05/18 09:55:05;;;;;;;4.00;3.28;;;25.80;60.30;;;;;;5031222;28;20505;-77
2022/05/18 09:57:52;;;;;;;5.60;3.25;;;25.90;60.40;;;;;;5026045;28;20049;-78
2022/05/18 10:00:25;;;;;;;4.05;3.00;;;26.00;60.60;;;;;;5021813;28;20116;-77
2022/05/18 10:09:14;;;;;;;3.83;2.70;;;26.30;60.50;;;;;;5021177;28;20034;-79
2022/05/18 10:11:40;;;;;;;3.95;3.15;;;26.40;60.30;;;;;;5030496;28;20763;-78
2022/05/18 10:14:14;;;;;;;3.80;2.75;;;26.50;60.10;;;;;;5031281;28;20040;-78
2022/05/18 10:16:58;;;;;;;3.67;2.40;;;26.60;60.20;;;;;;5020696;28;20038;-78
2022/05/18 10:19:44;;;;;;;3.25;2.47;;;26.70;60.50;;;;;;5026905;28;20071;-78
2022/05/18 10:22:16;;;;;;;3.00;2.58;;;26.80;60.10;;;;;;5033387;28;20034;-79
2022/05/18 10:24:50;;;;;;;5.03;2.80;;;26.90;60.00;;;;;;5027479;28;20025;-78
2022/05/18 10:27:16;;;;;;;3.40;2.63;;;27.00;60.00;;;;;;5014634;28;20029;-79
2022/05/18 10:30:02;;;;;;;3.88;2.55;;;27.10;59.90;;;;;;5026086;28;20033;-79
2022/05/18 10:32:29;;;;;;;4.38;3.05;;;27.20;59.80;;;;;;5023401;28;20026;-80
2022/05/18 10:34:56;;;;;;;3.33;2.63;;;27.30;59.80;;;;;;5007971;28;20033;-78
2022/05/18 10:37:33;;;;;;;3.08;2.45;;;27.40;59.80;;;;;;5023645;28;20049;-77
2022/05/18 10:40:18;;;;;;;2.97;2.45;;;27.50;59.80;;;;;;5018406;28;20034;-78
2022/05/18 10:42:44;;;;;;;;;;;27.60;59.70;;;;;;5061602;28;20033;-78
2022/05/18 10:45:32;;;;;;;3.13;2.10;;;27.70;59.50;;;;;;5024232;28;19948;-78
2022/05/18 10:48:27;;;;;;;2.80;2.10;;;27.80;59.50;;;;;;5024495;28;20031;-78
2022/05/18 10:51:27;;;;;;;2.70;2.10;;;27.90;59.40;;;;;;5018358;28;20030;-78
2022/05/18 10:54:04;;;;;;;3.15;2.30;;;28.00;59.50;;;;;;5060389;28;20024;-79
2022/05/18 10:56:30;;;;;;;3.20;2.25;;;28.10;59.30;;;;;;5017482;28;20133;-80
2022/05/18 10:59:30;;;;;;;3.13;2.28;;;28.10;59.20;;;;;;5058464;28;20171;-78
2022/05/18 11:02:12;;;;;;;3.25;2.30;;;28.30;59.40;;;;;;5021911;28;20034;-79
2022/05/18 11:04:44;;;;;;;3.58;2.42;;;28.30;59.30;;;;;;5018881;28;20026;-78
2022/05/18 11:07:10;;;;;;;3.25;2.20;;;28.40;59.20;;;;;;5029518;28;20034;-77
2022/05/18 11:09:38;;;;;;;3.35;2.55;;;28.50;59.20;;;;;;5021073;28;20040;-78
2022/05/18 11:12:28;;;;;;;3.50;2.70;;;28.50;59.20;;;;;;5023898;28;20033;-78
2022/05/18 11:15:05;;;;;;;3.20;2.45;;;28.60;59.20;;;;;;5020784;28;20041;-78
2022/05/18 11:17:50;;;;;;;2.90;2.13;;;28.70;59.10;;;;;;5042570;28;20065;-80
2022/05/18 11:20:34;;;;;;;;;;;28.70;59.20;;;;;;5041996;28;20055;-79
2022/05/18 11:23:12;;;;;;;2.67;1.70;;;28.70;59.20;;;;;;5037929;28;20063;-79
2022/05/18 11:26:03;;;;;;;2.78;2.15;;;28.80;59.30;;;;;;5026849;28;20032;-78
2022/05/18 11:28:47;;;;;;;2.85;2.20;;;28.80;59.60;;;;;;4999824;28;20470;-79
2022/05/18 11:31:37;;;;;;;2.50;2.10;;;28.80;59.80;;;;;;5041968;28;20022;-78
2022/05/18 11:34:28;;;;;;;2.90;2.30;;;28.90;60.20;;;;;;5025911;28;20368;-79
2022/05/18 11:37:39;;;;;;;3.55;2.50;;;28.90;60.00;;;;;;5016134;28;20096;-79
2022/05/18 11:40:18;;;;;;;2.88;2.00;;;28.90;60.20;;;;;;5027806;28;20054;-78
2022/05/18 11:43:25;;;;;;;3.35;2.25;;;29.00;60.20;;;;;;5029060;28;20025;-77
2022/05/18 11:46:06;;;;;;;2.70;2.10;;;29.10;60.30;;;;;;5020704;28;20034;-78
2022/05/18 11:48:38;;;;;;;2.75;2.20;;;29.10;60.50;;;;;;5058001;28;20421;-78
2022/05/18 11:51:17;;;;;;;3.22;2.33;;;29.10;60.50;;;;;;5021176;28;20029;-78
2022/05/18 11:53:56;;;;;;;2.35;1.92;;;29.10;60.60;;;;;;5013237;28;20036;-79
2022/05/18 11:56:50;;;;;;;2.65;2.05;;;29.20;60.50;;;;;;5022703;28;20107;-77
2022/05/18 11:59:52;;;;;;;3.58;2.17;;;29.20;60.60;;;;;;5024899;28;20218;-79
2022/05/18 12:02:36;;;;;;;2.72;2.10;;;29.20;60.50;;;;;;5021187;28;20053;-78
2022/05/18 12:05:22;;;;;;;2.97;2.08;;;29.30;60.60;;;;;;5021116;28;20030;-77
2022/05/18 12:08:14;;;;;;;2.58;2.10;;;29.30;60.70;;;;;;5040996;28;20511;-78
2022/05/18 12:10:53;;;;;;;2.83;1.95;;;29.30;60.70;;;;;;5026776;28;20029;-78
2022/05/18 12:13:27;;;;;;;2.35;2.00;;;29.30;60.60;;;;;;5027403;28;20104;-79
2022/05/18 12:16:11;;;;;;;2.13;1.92;;;29.30;60.70;;;;;;5011131;28;20029;-78
2022/05/18 12:18:44;;;;;;;2.28;1.85;;;29.40;60.80;;;;;;5021896;28;20491;-78
2022/05/18 12:21:26;;;;;;;2.55;2.03;;;29.40;60.90;;;;;;5002402;28;20524;-78
2022/05/18 12:24:00;;;;;;;2.58;2.00;;;29.40;60.80;;;;;;5039994;28;20072;-78
2022/05/18 12:26:27;;;;;;;2.63;2.00;;;29.50;60.90;;;;;;5024751;28;20072;-79
2022/05/18 12:28:53;;;;;;;1.95;1.63;;;29.50;60.80;;;;;;5026760;28;20303;-78
2022/05/18 12:31:21;;;;;;;2.65;2.08;;;29.50;60.80;;;;;;5010711;28;20037;-78
2022/05/18 12:34:02;;;;;;;2.20;2.00;;;29.50;60.60;;;;;;5021061;28;20037;-78
2022/05/18 12:36:51;;;;;;;2.08;1.83;;;29.50;60.50;;;;;;5027121;28;20038;-79
2022/05/18 12:39:33;;;;;;;2.30;1.90;;;29.50;60.40;;;;;;5025909;28;20120;-78
2022/05/18 12:42:01;;;;;;;2.97;2.00;;;29.60;60.30;;;;;;5017238;28;20033;-77
2022/05/18 12:45:25;;;;;;;2.28;1.90;;;29.60;60.90;;;;;;5027335;28;20551;-77
2022/05/18 12:48:16;;;;;;;2.25;1.75;;;29.60;60.40;;;;;;4965550;28;20367;-77
2022/05/18 12:50:58;;;;;;;2.60;1.88;;;29.70;60.30;;;;;;4982626;28;20033;-78
2022/05/18 12:53:26;;;;;;;2.10;1.80;;;29.70;60.10;;;;;;5018672;28;20041;-77
2022/05/18 12:56:05;;;;;;;2.00;1.67;;;29.60;59.90;;;;;;5028582;28;20053;-77
2022/05/18 12:58:43;;;;;;;2.38;1.70;;;29.70;60.00;;;;;;5010844;28;20405;-78
2022/05/18 13:01:15;;;;;;;3.22;1.88;;;29.70;59.90;;;;;;5025566;28;20049;-78
2022/05/18 13:03:54;;;;;;;3.03;1.80;;;29.70;59.80;;;;;;5021884;28;20061;-77
2022/05/18 13:06:39;;;;;;;2.83;1.90;;;29.70;59.80;;;;;;5025494;28;20033;-77
2022/05/18 13:09:23;;;;;;;2.03;1.67;;;29.70;59.70;;;;;;5017788;28;20104;-77
2022/05/18 13:12:03;;;;;;;2.33;1.80;;;29.80;59.60;;;;;;5022844;28;20028;-77
2022/05/18 13:14:34;;;;;;;2.13;1.50;;;29.80;59.60;;;;;;5039149;28;20061;-78
2022/05/18 13:17:14;;;;;;;2.17;1.90;;;29.90;59.60;;;;;;5020091;28;20037;-76
2022/05/18 13:19:54;;;;;;;2.22;1.70;;;29.90;59.40;;;;;;5055790;28;20033;-78
2022/05/18 13:22:19;;;;;;;2.17;1.90;;;29.90;59.40;;;;;;5023048;28;20036;-77
2022/05/18 13:24:55;;;;;;;2.47;1.90;;;29.90;59.20;;;;;;5021734;28;20022;-77
2022/05/18 13:27:33;;;;;;;3.33;2.08;;;29.90;59.20;;;;;;5042025;28;20386;-78
2022/05/18 13:30:05;;;;;;;2.08;1.88;;;30.00;59.10;;;;;;5024744;28;20131;-77